sensor_id;sensor_type;location;lat;lon;timestamp;P1;durP1;ratioP1;P2;durP2;ratioP2
64208;SDS011;50527;52.414;13.226;2023-09-18T00:02:06;3.65;;;2.00;;
64208;SDS011;50527;52.414;13.226;2023-09-18T00:04:32;4.90;;;1.88;;
64208;SDS011;50527;52.414;13.226;2023-09-18T00:06:58;3.15;;;1.80;;
64208;SDS011;50527;52.414;13.226;2023-09-18T00:09:24;3.97;;;1.63;;
64208;SDS011;50527;52.414;13.226;2023-09-18T00:11:50;4.28;;;1.88;;
64208;SDS011;50527;52.414;13.226;2023-09-18T00:14:16;3.65;;;1.98;;
64208;SDS011;50527;52.414;13.226;2023-09-18T00:16:41;3.33;;;2.00;;
64208;SDS011;50527;52.414;13.226;2023-09-18T00:19:07;3.92;;;1.90;;
64208;SDS011;50527;52.414;13.226;2023-09-18T00:21:33;6.05;;;1.98;;
64208;SDS011;50527;52.414;13.226;2023-09-18T00:23:59;2.95;;;1.73;;
64208;SDS011;50527;52.414;13.226;2023-09-18T00:26:25;2.97;;;1.73;;
64208;SDS011;50527;52.414;13.226;2023-09-18T00:28:50;3.83;;;1.73;;
64208;SDS011;50527;52.414;13.226;2023-09-18T00:31:16;5.18;;;2.00;;
64208;SDS011;50527;52.414;13.226;2023-09-18T00:33:41;4.35;;;1.95;;
64208;SDS011;50527;52.414;13.226;2023-09-18T00:36:06;5.78;;;1.90;;
64208;SDS011;50527;52.414;13.226;2023-09-18T00:38:32;7.63;;;2.10;;
64208;SDS011;50527;52.414;13.226;2023-09-18T00:40:58;4.30;;;1.65;;
64208;SDS011;50527;52.414;13.226;2023-09-18T00:43:23;6.75;;;1.92;;
64208;SDS011;50527;52.414;13.226;2023-09-18T00:45:48;5.05;;;1.80;;
64208;SDS011;50527;52.414;13.226;2023-09-18T00:48:14;5.38;;;1.90;;
64208;SDS011;50527;52.414;13.226;2023-09-18T00:50:42;5.30;;;2.00;;
64208;SDS011;50527;52.414;13.226;2023-09-18T00:53:09;3.35;;;1.70;;
64208;SDS011;50527;52.414;13.226;2023-09-18T00:55:38;3.88;;;1.80;;
64208;SDS011;50527;52.414;13.226;2023-09-18T00:58:04;2.80;;;1.75;;
64208;SDS011;50527;52.414;13.226;2023-09-18T01:00:32;4.78;;;1.70;;
64208;SDS011;50527;52.414;13.226;2023-09-18T01:02:57;4.78;;;2.03;;
64208;SDS011;50527;52.414;13.226;2023-09-18T01:05:23;3.15;;;1.52;;
64208;SDS011;50527;52.414;13.226;2023-09-18T01:07:48;4.10;;;1.85;;
64208;SDS011;50527;52.414;13.226;2023-09-18T01:10:14;3.60;;;1.67;;
64208;SDS011;50527;52.414;13.226;2023-09-18T01:12:44;4.70;;;1.83;;
64208;SDS011;50527;52.414;13.226;2023-09-18T01:17:44;3.75;;;1.80;;
64208;SDS011;50527;52.414;13.226;2023-09-18T01:20:11;4.07;;;1.83;;
64208;SDS011;50527;52.414;13.226;2023-09-18T01:22:37;3.83;;;1.80;;
64208;SDS011;50527;52.414;13.226;2023-09-18T01:25:02;2.83;;;1.80;;
64208;SDS011;50527;52.414;13.226;2023-09-18T01:27:28;4.10;;;1.90;;
64208;SDS011;50527;52.414;13.226;2023-09-18T01:29:54;3.50;;;1.65;;
64208;SDS011;50527;52.414;13.226;2023-09-18T01:32:19;3.72;;;1.80;;
64208;SDS011;50527;52.414;13.226;2023-09-18T01:34:49;3.28;;;1.63;;
64208;SDS011;50527;52.414;13.226;2023-09-18T01:37:18;4.35;;;1.60;;
64208;SDS011;50527;52.414;13.226;2023-09-18T01:39:46;4.00;;;2.17;;
64208;SDS011;50527;52.414;13.226;2023-09-18T01:42:13;3.72;;;2.00;;
64208;SDS011;50527;52.414;13.226;2023-09-18T01:44:39;4.00;;;1.88;;
64208;SDS011;50527;52.414;13.226;2023-09-18T01:47:06;4.10;;;1.60;;
64208;SDS011;50527;52.414;13.226;2023-09-18T01:49:34;5.97;;;1.70;;
64208;SDS011;50527;52.414;13.226;2023-09-18T01:52:01;2.58;;;1.70;;
64208;SDS011;50527;52.414;13.226;2023-09-18T01:54:28;2.88;;;1.60;;
64208;SDS011;50527;52.414;13.226;2023-09-18T01:56:55;2.72;;;1.55;;
64208;SDS011;50527;52.414;13.226;2023-09-18T01:59:20;4.97;;;1.98;;
64208;SDS011;50527;52.414;13.226;2023-09-18T02:01:47;3.03;;;1.80;;
64208;SDS011;50527;52.414;13.226;2023-09-18T02:04:13;2.95;;;1.73;;
64208;SDS011;50527;52.414;13.226;2023-09-18T02:06:38;3.40;;;1.88;;
64208;SDS011;50527;52.414;13.226;2023-09-18T02:09:05;2.13;;;1.60;;
64208;SDS011;50527;52.414;13.226;2023-09-18T02:11:30;4.10;;;1.90;;
64208;SDS011;50527;52.414;13.226;2023-09-18T02:13:56;2.78;;;1.60;;
64208;SDS011;50527;52.414;13.226;2023-09-18T02:16:21;2.92;;;1.70;;
64208;SDS011;50527;52.414;13.226;2023-09-18T02:18:47;4.50;;;1.85;;
64208;SDS011;50527;52.414;13.226;2023-09-18T02:21:18;2.40;;;1.60;;
64208;SDS011;50527;52.414;13.226;2023-09-18T02:23:45;3.47;;;1.80;;
64208;SDS011;50527;52.414;13.226;2023-09-18T02:26:10;3.05;;;1.52;;
64208;SDS011;50527;52.414;13.226;2023-09-18T02:28:36;2.95;;;1.73;;
64208;SDS011;50527;52.414;13.226;2023-09-18T02:31:01;3.05;;;1.52;;
64208;SDS011;50527;52.414;13.226;2023-09-18T02:33:27;4.95;;;1.98;;
64208;SDS011;50527;52.414;13.226;2023-09-18T02:35:53;4.05;;;1.70;;
64208;SDS011;50527;52.414;13.226;2023-09-18T02:38:18;2.95;;;1.50;;
64208;SDS011;50527;52.414;13.226;2023-09-18T02:40:44;3.80;;;1.67;;
64208;SDS011;50527;52.414;13.226;2023-09-18T02:43:09;2.70;;;1.65;;
64208;SDS011;50527;52.414;13.226;2023-09-18T02:45:35;3.53;;;1.75;;
64208;SDS011;50527;52.414;13.226;2023-09-18T02:48:00;5.43;;;1.60;;
64208;SDS011;50527;52.414;13.226;2023-09-18T02:50:26;3.15;;;1.80;;
64208;SDS011;50527;52.414;13.226;2023-09-18T02:52:51;3.15;;;1.90;;
64208;SDS011;50527;52.414;13.226;2023-09-18T02:55:16;2.55;;;1.50;;
64208;SDS011;50527;52.414;13.226;2023-09-18T02:57:42;2.75;;;1.65;;
64208;SDS011;50527;52.414;13.226;2023-09-18T03:00:08;5.80;;;1.70;;
64208;SDS011;50527;52.414;13.226;2023-09-18T03:02:34;3.15;;;1.75;;
64208;SDS011;50527;52.414;13.226;2023-09-18T03:05:00;2.40;;;1.80;;
64208;SDS011;50527;52.414;13.226;2023-09-18T03:07:26;3.60;;;1.63;;
64208;SDS011;50527;52.414;13.226;2023-09-18T03:09:54;2.97;;;1.65;;
64208;SDS011;50527;52.414;13.226;2023-09-18T03:12:20;3.20;;;1.60;;
64208;SDS011;50527;52.414;13.226;2023-09-18T03:14:45;4.28;;;1.77;;
64208;SDS011;50527;52.414;13.226;2023-09-18T03:17:12;3.83;;;1.88;;
64208;SDS011;50527;52.414;13.226;2023-09-18T03:19:37;3.40;;;1.70;;
64208;SDS011;50527;52.414;13.226;2023-09-18T03:22:02;3.45;;;1.85;;
64208;SDS011;50527;52.414;13.226;2023-09-18T03:24:28;2.90;;;1.58;;
64208;SDS011;50527;52.414;13.226;2023-09-18T03:26:54;3.60;;;1.80;;
64208;SDS011;50527;52.414;13.226;2023-09-18T03:29:19;2.53;;;1.55;;
64208;SDS011;50527;52.414;13.226;2023-09-18T03:31:44;3.40;;;1.83;;
64208;SDS011;50527;52.414;13.226;2023-09-18T03:34:10;3.50;;;1.75;;
64208;SDS011;50527;52.414;13.226;2023-09-18T03:36:35;2.63;;;1.70;;
64208;SDS011;50527;52.414;13.226;2023-09-18T03:39:02;3.33;;;1.83;;
64208;SDS011;50527;52.414;13.226;2023-09-18T03:41:29;2.63;;;1.52;;
64208;SDS011;50527;52.414;13.226;2023-09-18T03:43:58;3.15;;;1.70;;
64208;SDS011;50527;52.414;13.226;2023-09-18T03:46:27;5.85;;;2.05;;
64208;SDS011;50527;52.414;13.226;2023-09-18T03:48:52;4.10;;;1.83;;
64208;SDS011;50527;52.414;13.226;2023-09-18T03:51:18;2.55;;;1.60;;
64208;SDS011;50527;52.414;13.226;2023-09-18T03:53:44;2.70;;;1.60;;
64208;SDS011;50527;52.414;13.226;2023-09-18T03:56:10;2.63;;;1.67;;
64208;SDS011;50527;52.414;13.226;2023-09-18T03:58:36;3.58;;;1.77;;
64208;SDS011;50527;52.414;13.226;2023-09-18T04:01:01;2.80;;;1.63;;
64208;SDS011;50527;52.414;13.226;2023-09-18T04:03:27;2.30;;;1.60;;
64208;SDS011;50527;52.414;13.226;2023-09-18T04:05:52;3.33;;;1.60;;
64208;SDS011;50527;52.414;13.226;2023-09-18T04:08:18;6.95;;;2.30;;
64208;SDS011;50527;52.414;13.226;2023-09-18T04:10:43;5.90;;;2.00;;
64208;SDS011;50527;52.414;13.226;2023-09-18T04:13:10;3.10;;;1.52;;
64208;SDS011;50527;52.414;13.226;2023-09-18T04:15:35;3.90;;;1.80;;
64208;SDS011;50527;52.414;13.226;2023-09-18T04:18:03;4.28;;;1.90;;
64208;SDS011;50527;52.414;13.226;2023-09-18T04:20:29;3.97;;;1.75;;
64208;SDS011;50527;52.414;13.226;2023-09-18T04:25:49;5.70;;;1.80;;
64208;SDS011;50527;52.414;13.226;2023-09-18T04:28:16;3.70;;;1.85;;
64208;SDS011;50527;52.414;13.226;2023-09-18T04:30:44;4.03;;;1.67;;
64208;SDS011;50527;52.414;13.226;2023-09-18T04:33:09;4.35;;;1.80;;
64208;SDS011;50527;52.414;13.226;2023-09-18T04:35:36;4.53;;;1.92;;
64208;SDS011;50527;52.414;13.226;2023-09-18T04:38:04;4.43;;;1.80;;
64208;SDS011;50527;52.414;13.226;2023-09-18T04:40:30;3.88;;;1.80;;
64208;SDS011;50527;52.414;13.226;2023-09-18T04:42:57;5.32;;;1.83;;
64208;SDS011;50527;52.414;13.226;2023-09-18T04:45:26;3.63;;;1.90;;
64208;SDS011;50527;52.414;13.226;2023-09-18T04:47:52;3.63;;;1.60;;
64208;SDS011;50527;52.414;13.226;2023-09-18T04:50:19;4.68;;;1.90;;
64208;SDS011;50527;52.414;13.226;2023-09-18T04:52:44;2.80;;;1.42;;
64208;SDS011;50527;52.414;13.226;2023-09-18T04:55:10;2.60;;;1.70;;
64208;SDS011;50527;52.414;13.226;2023-09-18T04:57:36;3.30;;;1.77;;
64208;SDS011;50527;52.414;13.226;2023-09-18T05:00:02;2.55;;;1.40;;
64208;SDS011;50527;52.414;13.226;2023-09-18T05:02:33;2.67;;;1.55;;
64208;SDS011;50527;52.414;13.226;2023-09-18T05:04:59;4.97;;;1.75;;
64208;SDS011;50527;52.414;13.226;2023-09-18T05:07:25;6.05;;;2.13;;
64208;SDS011;50527;52.414;13.226;2023-09-18T05:09:50;3.47;;;1.60;;
64208;SDS011;50527;52.414;13.226;2023-09-18T05:12:16;4.85;;;1.80;;
64208;SDS011;50527;52.414;13.226;2023-09-18T05:14:42;8.95;;;1.90;;
64208;SDS011;50527;52.414;13.226;2023-09-18T05:17:13;5.15;;;1.90;;
64208;SDS011;50527;52.414;13.226;2023-09-18T05:19:40;5.97;;;1.67;;
64208;SDS011;50527;52.414;13.226;2023-09-18T05:22:05;5.25;;;1.92;;
64208;SDS011;50527;52.414;13.226;2023-09-18T05:24:31;3.75;;;1.73;;
64208;SDS011;50527;52.414;13.226;2023-09-18T05:26:57;5.57;;;1.92;;
64208;SDS011;50527;52.414;13.226;2023-09-18T05:29:23;2.28;;;1.40;;
64208;SDS011;50527;52.414;13.226;2023-09-18T05:31:49;4.22;;;1.80;;
64208;SDS011;50527;52.414;13.226;2023-09-18T05:34:14;3.78;;;1.80;;
64208;SDS011;50527;52.414;13.226;2023-09-18T05:36:40;3.30;;;1.65;;
64208;SDS011;50527;52.414;13.226;2023-09-18T05:39:05;5.65;;;2.10;;
64208;SDS011;50527;52.414;13.226;2023-09-18T05:41:36;4.20;;;1.65;;
64208;SDS011;50527;52.414;13.226;2023-09-18T05:44:02;3.95;;;1.77;;
64208;SDS011;50527;52.414;13.226;2023-09-18T05:46:30;3.95;;;1.70;;
64208;SDS011;50527;52.414;13.226;2023-09-18T05:48:55;3.38;;;1.80;;
64208;SDS011;50527;52.414;13.226;2023-09-18T05:51:22;3.53;;;1.80;;
64208;SDS011;50527;52.414;13.226;2023-09-18T05:53:47;3.35;;;1.80;;
64208;SDS011;50527;52.414;13.226;2023-09-18T05:56:13;4.55;;;1.60;;
64208;SDS011;50527;52.414;13.226;2023-09-18T05:58:39;5.10;;;2.10;;
64208;SDS011;50527;52.414;13.226;2023-09-18T06:01:05;3.20;;;1.70;;
64208;SDS011;50527;52.414;13.226;2023-09-18T06:03:31;7.80;;;1.80;;
64208;SDS011;50527;52.414;13.226;2023-09-18T06:06:00;5.00;;;1.80;;
64208;SDS011;50527;52.414;13.226;2023-09-18T06:08:26;5.18;;;1.58;;
64208;SDS011;50527;52.414;13.226;2023-09-18T06:10:53;4.05;;;1.60;;
64208;SDS011;50527;52.414;13.226;2023-09-18T06:13:20;3.75;;;1.60;;
64208;SDS011;50527;52.414;13.226;2023-09-18T06:15:45;6.47;;;1.58;;
64208;SDS011;50527;52.414;13.226;2023-09-18T06:18:11;4.53;;;1.77;;
64208;SDS011;50527;52.414;13.226;2023-09-18T06:20:36;6.57;;;1.98;;
64208;SDS011;50527;52.414;13.226;2023-09-18T06:23:02;7.25;;;2.03;;
64208;SDS011;50527;52.414;13.226;2023-09-18T06:25:28;6.72;;;2.10;;
64208;SDS011;50527;52.414;13.226;2023-09-18T06:27:56;3.45;;;1.60;;
64208;SDS011;50527;52.414;13.226;2023-09-18T06:30:21;3.45;;;1.52;;
64208;SDS011;50527;52.414;13.226;2023-09-18T06:32:47;3.97;;;1.60;;
64208;SDS011;50527;52.414;13.226;2023-09-18T06:35:13;6.10;;;1.88;;
64208;SDS011;50527;52.414;13.226;2023-09-18T06:37:38;6.78;;;1.58;;
64208;SDS011;50527;52.414;13.226;2023-09-18T06:40:04;2.08;;;1.40;;
64208;SDS011;50527;52.414;13.226;2023-09-18T06:42:30;3.15;;;1.65;;
64208;SDS011;50527;52.414;13.226;2023-09-18T06:44:57;4.35;;;1.65;;
64208;SDS011;50527;52.414;13.226;2023-09-18T06:47:22;2.83;;;1.50;;
64208;SDS011;50527;52.414;13.226;2023-09-18T06:49:49;5.53;;;1.77;;
64208;SDS011;50527;52.414;13.226;2023-09-18T06:52:16;4.63;;;1.80;;
64208;SDS011;50527;52.414;13.226;2023-09-18T06:54:41;4.40;;;1.77;;
64208;SDS011;50527;52.414;13.226;2023-09-18T06:57:09;3.03;;;1.70;;
64208;SDS011;50527;52.414;13.226;2023-09-18T06:59:34;2.58;;;1.63;;
64208;SDS011;50527;52.414;13.226;2023-09-18T07:02:00;2.60;;;1.60;;
64208;SDS011;50527;52.414;13.226;2023-09-18T07:04:26;5.22;;;1.50;;
64208;SDS011;50527;52.414;13.226;2023-09-18T07:06:52;3.80;;;1.58;;
64208;SDS011;50527;52.414;13.226;2023-09-18T07:09:18;6.82;;;1.63;;
64208;SDS011;50527;52.414;13.226;2023-09-18T07:11:44;3.80;;;1.50;;
64208;SDS011;50527;52.414;13.226;2023-09-18T07:14:10;3.47;;;1.45;;
64208;SDS011;50527;52.414;13.226;2023-09-18T07:16:35;3.97;;;1.63;;
64208;SDS011;50527;52.414;13.226;2023-09-18T07:19:01;3.17;;;1.20;;
64208;SDS011;50527;52.414;13.226;2023-09-18T07:21:29;4.30;;;1.38;;
64208;SDS011;50527;52.414;13.226;2023-09-18T07:23:55;4.45;;;1.45;;
64208;SDS011;50527;52.414;13.226;2023-09-18T07:26:20;4.07;;;1.48;;
64208;SDS011;50527;52.414;13.226;2023-09-18T07:28:46;2.28;;;1.35;;
64208;SDS011;50527;52.414;13.226;2023-09-18T07:31:12;3.78;;;1.23;;
64208;SDS011;50527;52.414;13.226;2023-09-18T07:33:39;1.85;;;1.08;;
64208;SDS011;50527;52.414;13.226;2023-09-18T07:36:05;3.42;;;1.20;;
64208;SDS011;50527;52.414;13.226;2023-09-18T07:38:31;3.90;;;1.17;;
64208;SDS011;50527;52.414;13.226;2023-09-18T07:40:56;4.57;;;1.20;;
64208;SDS011;50527;52.414;13.226;2023-09-18T07:43:23;3.20;;;1.30;;
64208;SDS011;50527;52.414;13.226;2023-09-18T07:45:49;4.68;;;1.05;;
64208;SDS011;50527;52.414;13.226;2023-09-18T07:48:15;2.63;;;1.20;;
64208;SDS011;50527;52.414;13.226;2023-09-18T07:50:44;2.25;;;1.13;;
64208;SDS011;50527;52.414;13.226;2023-09-18T07:53:10;6.05;;;1.40;;
64208;SDS011;50527;52.414;13.226;2023-09-18T07:55:36;3.05;;;1.40;;
64208;SDS011;50527;52.414;13.226;2023-09-18T07:58:01;2.85;;;0.95;;
64208;SDS011;50527;52.414;13.226;2023-09-18T08:00:29;4.28;;;1.40;;
64208;SDS011;50527;52.414;13.226;2023-09-18T08:02:55;2.78;;;1.23;;
64208;SDS011;50527;52.414;13.226;2023-09-18T08:05:26;2.42;;;1.10;;
64208;SDS011;50527;52.414;13.226;2023-09-18T08:07:53;2.20;;;1.20;;
64208;SDS011;50527;52.414;13.226;2023-09-18T08:10:22;2.95;;;1.35;;
64208;SDS011;50527;52.414;13.226;2023-09-18T08:12:47;2.08;;;1.30;;
64208;SDS011;50527;52.414;13.226;2023-09-18T08:15:15;1.70;;;1.00;;
64208;SDS011;50527;52.414;13.226;2023-09-18T08:17:40;1.98;;;1.15;;
64208;SDS011;50527;52.414;13.226;2023-09-18T08:20:07;2.45;;;1.30;;
64208;SDS011;50527;52.414;13.226;2023-09-18T08:22:37;3.17;;;1.10;;
64208;SDS011;50527;52.414;13.226;2023-09-18T08:25:03;2.13;;;1.00;;
64208;SDS011;50527;52.414;13.226;2023-09-18T08:27:30;3.90;;;1.17;;
64208;SDS011;50527;52.414;13.226;2023-09-18T08:29:56;6.70;;;1.40;;
64208;SDS011;50527;52.414;13.226;2023-09-18T08:32:21;2.33;;;1.20;;
64208;SDS011;50527;52.414;13.226;2023-09-18T08:34:47;3.72;;;1.20;;
64208;SDS011;50527;52.414;13.226;2023-09-18T08:37:12;6.22;;;1.10;;
64208;SDS011;50527;52.414;13.226;2023-09-18T08:39:37;4.10;;;1.00;;
64208;SDS011;50527;52.414;13.226;2023-09-18T08:42:03;5.00;;;1.20;;
64208;SDS011;50527;52.414;13.226;2023-09-18T08:44:30;7.00;;;1.30;;
64208;SDS011;50527;52.414;13.226;2023-09-18T08:46:56;6.18;;;1.15;;
64208;SDS011;50527;52.414;13.226;2023-09-18T08:49:23;3.55;;;1.20;;
64208;SDS011;50527;52.414;13.226;2023-09-18T08:51:49;2.58;;;1.25;;
64208;SDS011;50527;52.414;13.226;2023-09-18T08:54:15;3.08;;;1.00;;
64208;SDS011;50527;52.414;13.226;2023-09-18T08:56:41;1.90;;;1.13;;
64208;SDS011;50527;52.414;13.226;2023-09-18T08:59:07;3.25;;;1.10;;
64208;SDS011;50527;52.414;13.226;2023-09-18T09:01:32;1.92;;;1.10;;
64208;SDS011;50527;52.414;13.226;2023-09-18T09:03:58;2.17;;;1.20;;
64208;SDS011;50527;52.414;13.226;2023-09-18T09:06:25;2.00;;;1.10;;
64208;SDS011;50527;52.414;13.226;2023-09-18T09:08:51;2.30;;;1.08;;
64208;SDS011;50527;52.414;13.226;2023-09-18T09:11:16;4.07;;;1.20;;
64208;SDS011;50527;52.414;13.226;2023-09-18T09:13:43;7.10;;;1.58;;
64208;SDS011;50527;52.414;13.226;2023-09-18T09:16:10;2.97;;;1.00;;
64208;SDS011;50527;52.414;13.226;2023-09-18T09:18:46;3.70;;;1.10;;
64208;SDS011;50527;52.414;13.226;2023-09-18T09:21:15;4.15;;;1.15;;
64208;SDS011;50527;52.414;13.226;2023-09-18T09:23:48;3.38;;;1.10;;
64208;SDS011;50527;52.414;13.226;2023-09-18T09:26:18;2.08;;;1.10;;
64208;SDS011;50527;52.414;13.226;2023-09-18T09:28:45;3.90;;;1.20;;
64208;SDS011;50527;52.414;13.226;2023-09-18T09:31:11;6.93;;;1.33;;
64208;SDS011;50527;52.414;13.226;2023-09-18T09:33:50;1.83;;;1.00;;
64208;SDS011;50527;52.414;13.226;2023-09-18T09:36:21;2.95;;;1.00;;
64208;SDS011;50527;52.414;13.226;2023-09-18T09:38:47;5.35;;;1.02;;
64208;SDS011;50527;52.414;13.226;2023-09-18T09:41:15;2.17;;;0.90;;
64208;SDS011;50527;52.414;13.226;2023-09-18T09:43:43;1.98;;;0.95;;
64208;SDS011;50527;52.414;13.226;2023-09-18T09:46:14;2.10;;;1.05;;
64208;SDS011;50527;52.414;13.226;2023-09-18T09:49:03;2.38;;;1.13;;
64208;SDS011;50527;52.414;13.226;2023-09-18T09:51:30;1.50;;;0.88;;
64208;SDS011;50527;52.414;13.226;2023-09-18T09:53:56;2.15;;;1.10;;
64208;SDS011;50527;52.414;13.226;2023-09-18T09:56:39;1.60;;;1.00;;
64208;SDS011;50527;52.414;13.226;2023-09-18T09:59:13;3.47;;;1.05;;
64208;SDS011;50527;52.414;13.226;2023-09-18T10:01:39;1.73;;;0.85;;
64208;SDS011;50527;52.414;13.226;2023-09-18T10:04:07;2.83;;;1.10;;
64208;SDS011;50527;52.414;13.226;2023-09-18T10:06:35;3.65;;;1.05;;
64208;SDS011;50527;52.414;13.226;2023-09-18T10:09:02;3.70;;;1.00;;
64208;SDS011;50527;52.414;13.226;2023-09-18T10:11:30;1.60;;;1.10;;
64208;SDS011;50527;52.414;13.226;2023-09-18T10:14:04;1.30;;;0.80;;
64208;SDS011;50527;52.414;13.226;2023-09-18T10:16:35;3.25;;;1.08;;
64208;SDS011;50527;52.414;13.226;2023-09-18T10:19:21;4.22;;;1.20;;
64208;SDS011;50527;52.414;13.226;2023-09-18T10:22:37;5.38;;;1.00;;
64208;SDS011;50527;52.414;13.226;2023-09-18T10:25:11;4.07;;;1.02;;
64208;SDS011;50527;52.414;13.226;2023-09-18T10:27:43;4.60;;;1.02;;
64208;SDS011;50527;52.414;13.226;2023-09-18T10:30:14;7.32;;;1.00;;
64208;SDS011;50527;52.414;13.226;2023-09-18T10:32:43;4.70;;;1.02;;
64208;SDS011;50527;52.414;13.226;2023-09-18T10:35:13;2.72;;;1.08;;
64208;SDS011;50527;52.414;13.226;2023-09-18T10:37:39;2.58;;;1.20;;
64208;SDS011;50527;52.414;13.226;2023-09-18T10:40:08;2.33;;;1.00;;
64208;SDS011;50527;52.414;13.226;2023-09-18T10:42:35;3.33;;;0.98;;
64208;SDS011;50527;52.414;13.226;2023-09-18T10:45:03;1.65;;;1.00;;
64208;SDS011;50527;52.414;13.226;2023-09-18T10:47:30;2.08;;;1.00;;
64208;SDS011;50527;52.414;13.226;2023-09-18T10:49:56;4.57;;;1.00;;
64208;SDS011;50527;52.414;13.226;2023-09-18T10:52:21;4.70;;;1.17;;
64208;SDS011;50527;52.414;13.226;2023-09-18T10:54:47;5.95;;;1.20;;
64208;SDS011;50527;52.414;13.226;2023-09-18T10:57:12;2.78;;;1.10;;
64208;SDS011;50527;52.414;13.226;2023-09-18T10:59:47;3.42;;;1.20;;
64208;SDS011;50527;52.414;13.226;2023-09-18T11:02:14;11.52;;;1.48;;
64208;SDS011;50527;52.414;13.226;2023-09-18T11:04:41;1.58;;;0.90;;
64208;SDS011;50527;52.414;13.226;2023-09-18T11:07:07;2.25;;;1.20;;
64208;SDS011;50527;52.414;13.226;2023-09-18T11:09:41;1.75;;;1.10;;
64208;SDS011;50527;52.414;13.226;2023-09-18T11:12:08;2.00;;;0.93;;
64208;SDS011;50527;52.414;13.226;2023-09-18T11:14:42;3.00;;;1.15;;
64208;SDS011;50527;52.414;13.226;2023-09-18T11:20:23;4.47;;;0.90;;
64208;SDS011;50527;52.414;13.226;2023-09-18T11:22:57;2.58;;;1.00;;
64208;SDS011;50527;52.414;13.226;2023-09-18T11:25:45;3.70;;;1.08;;
64208;SDS011;50527;52.414;13.226;2023-09-18T11:28:13;3.70;;;1.25;;
64208;SDS011;50527;52.414;13.226;2023-09-18T11:30:51;1.30;;;0.82;;
64208;SDS011;50527;52.414;13.226;2023-09-18T11:33:29;3.25;;;1.20;;
64208;SDS011;50527;52.414;13.226;2023-09-18T11:36:02;4.05;;;0.80;;
64208;SDS011;50527;52.414;13.226;2023-09-18T11:38:33;3.95;;;1.08;;
64208;SDS011;50527;52.414;13.226;2023-09-18T11:41:01;1.70;;;0.93;;
64208;SDS011;50527;52.414;13.226;2023-09-18T11:43:44;1.77;;;1.00;;
64208;SDS011;50527;52.414;13.226;2023-09-18T11:46:09;6.28;;;1.00;;
64208;SDS011;50527;52.414;13.226;2023-09-18T11:48:37;2.03;;;1.00;;
64208;SDS011;50527;52.414;13.226;2023-09-18T11:51:06;2.90;;;0.90;;
64208;SDS011;50527;52.414;13.226;2023-09-18T11:53:36;1.95;;;0.90;;
64208;SDS011;50527;52.414;13.226;2023-09-18T11:56:09;4.13;;;0.95;;
64208;SDS011;50527;52.414;13.226;2023-09-18T11:58:49;2.35;;;1.00;;
64208;SDS011;50527;52.414;13.226;2023-09-18T12:01:16;3.88;;;0.70;;
64208;SDS011;50527;52.414;13.226;2023-09-18T12:03:43;3.53;;;0.90;;
64208;SDS011;50527;52.414;13.226;2023-09-18T12:06:08;3.88;;;1.00;;
64208;SDS011;50527;52.414;13.226;2023-09-18T12:08:38;1.25;;;0.70;;
64208;SDS011;50527;52.414;13.226;2023-09-18T12:11:05;1.70;;;0.90;;
64208;SDS011;50527;52.414;13.226;2023-09-18T12:13:31;1.88;;;0.80;;
64208;SDS011;50527;52.414;13.226;2023-09-18T12:15:57;6.05;;;1.10;;
64208;SDS011;50527;52.414;13.226;2023-09-18T12:18:25;4.25;;;0.85;;
64208;SDS011;50527;52.414;13.226;2023-09-18T12:20:53;1.90;;;0.90;;
64208;SDS011;50527;52.414;13.226;2023-09-18T12:23:20;1.80;;;0.90;;
64208;SDS011;50527;52.414;13.226;2023-09-18T12:25:47;2.00;;;0.85;;
64208;SDS011;50527;52.414;13.226;2023-09-18T12:28:14;5.53;;;0.98;;
64208;SDS011;50527;52.414;13.226;2023-09-18T12:30:41;4.20;;;1.10;;
64208;SDS011;50527;52.414;13.226;2023-09-18T12:33:07;1.85;;;0.80;;
64208;SDS011;50527;52.414;13.226;2023-09-18T12:35:33;4.47;;;1.00;;
64208;SDS011;50527;52.414;13.226;2023-09-18T12:37:59;2.30;;;1.00;;
64208;SDS011;50527;52.414;13.226;2023-09-18T12:40:26;1.73;;;0.85;;
64208;SDS011;50527;52.414;13.226;2023-09-18T12:42:56;3.53;;;0.88;;
64208;SDS011;50527;52.414;13.226;2023-09-18T12:45:26;1.60;;;0.95;;
64208;SDS011;50527;52.414;13.226;2023-09-18T12:47:54;3.47;;;1.25;;
64208;SDS011;50527;52.414;13.226;2023-09-18T12:50:20;5.28;;;1.00;;
64208;SDS011;50527;52.414;13.226;2023-09-18T12:52:46;4.03;;;0.98;;
64208;SDS011;50527;52.414;13.226;2023-09-18T12:55:24;6.22;;;1.08;;
64208;SDS011;50527;52.414;13.226;2023-09-18T12:57:52;3.20;;;1.00;;
64208;SDS011;50527;52.414;13.226;2023-09-18T13:00:18;3.85;;;1.20;;
64208;SDS011;50527;52.414;13.226;2023-09-18T13:02:47;5.32;;;1.00;;
64208;SDS011;50527;52.414;13.226;2023-09-18T13:05:18;1.40;;;0.80;;
64208;SDS011;50527;52.414;13.226;2023-09-18T13:07:45;3.72;;;0.75;;
64208;SDS011;50527;52.414;13.226;2023-09-18T13:10:10;3.53;;;1.10;;
64208;SDS011;50527;52.414;13.226;2023-09-18T13:12:43;3.80;;;1.10;;
64208;SDS011;50527;52.414;13.226;2023-09-18T13:15:12;4.10;;;1.10;;
64208;SDS011;50527;52.414;13.226;2023-09-18T13:17:42;5.28;;;0.90;;
64208;SDS011;50527;52.414;13.226;2023-09-18T13:20:15;3.20;;;1.23;;
64208;SDS011;50527;52.414;13.226;2023-09-18T13:22:47;4.97;;;1.20;;
64208;SDS011;50527;52.414;13.226;2023-09-18T13:25:18;9.07;;;1.45;;
64208;SDS011;50527;52.414;13.226;2023-09-18T13:27:52;8.63;;;1.05;;
64208;SDS011;50527;52.414;13.226;2023-09-18T13:30:19;1.65;;;0.95;;
64208;SDS011;50527;52.414;13.226;2023-09-18T13:32:46;3.85;;;1.30;;
64208;SDS011;50527;52.414;13.226;2023-09-18T13:35:13;2.67;;;0.95;;
64208;SDS011;50527;52.414;13.226;2023-09-18T13:37:40;6.55;;;1.23;;
64208;SDS011;50527;52.414;13.226;2023-09-18T13:40:05;4.65;;;1.10;;
64208;SDS011;50527;52.414;13.226;2023-09-18T13:42:33;6.40;;;1.15;;
64208;SDS011;50527;52.414;13.226;2023-09-18T13:45:02;5.45;;;1.00;;
64208;SDS011;50527;52.414;13.226;2023-09-18T13:47:29;5.70;;;1.30;;
64208;SDS011;50527;52.414;13.226;2023-09-18T13:49:55;7.30;;;1.25;;
64208;SDS011;50527;52.414;13.226;2023-09-18T13:52:27;3.33;;;1.10;;
64208;SDS011;50527;52.414;13.226;2023-09-18T13:54:53;4.32;;;1.23;;
64208;SDS011;50527;52.414;13.226;2023-09-18T13:57:19;3.20;;;1.05;;
64208;SDS011;50527;52.414;13.226;2023-09-18T13:59:45;9.20;;;1.20;;
64208;SDS011;50527;52.414;13.226;2023-09-18T14:02:12;8.85;;;1.00;;
64208;SDS011;50527;52.414;13.226;2023-09-18T14:04:38;3.15;;;1.30;;
64208;SDS011;50527;52.414;13.226;2023-09-18T14:07:04;2.45;;;0.98;;
64208;SDS011;50527;52.414;13.226;2023-09-18T14:09:31;4.55;;;1.08;;
64208;SDS011;50527;52.414;13.226;2023-09-18T14:11:56;3.88;;;1.08;;
64208;SDS011;50527;52.414;13.226;2023-09-18T14:14:22;3.88;;;0.95;;
64208;SDS011;50527;52.414;13.226;2023-09-18T14:16:48;2.15;;;0.82;;
64208;SDS011;50527;52.414;13.226;2023-09-18T14:19:15;7.07;;;1.00;;
64208;SDS011;50527;52.414;13.226;2023-09-18T14:21:41;6.07;;;0.93;;
64208;SDS011;50527;52.414;13.226;2023-09-18T14:24:06;6.28;;;0.93;;
64208;SDS011;50527;52.414;13.226;2023-09-18T14:26:33;4.03;;;0.70;;
64208;SDS011;50527;52.414;13.226;2023-09-18T14:29:05;3.97;;;0.47;;
64208;SDS011;50527;52.414;13.226;2023-09-18T14:31:35;1.75;;;0.60;;
64208;SDS011;50527;52.414;13.226;2023-09-18T14:34:01;2.17;;;0.70;;
64208;SDS011;50527;52.414;13.226;2023-09-18T14:36:27;4.55;;;1.08;;
64208;SDS011;50527;52.414;13.226;2023-09-18T14:38:52;3.17;;;0.80;;
64208;SDS011;50527;52.414;13.226;2023-09-18T14:41:20;2.35;;;0.63;;
64208;SDS011;50527;52.414;13.226;2023-09-18T14:43:46;2.15;;;0.82;;